createdAt,value
2023-05-01T00:02:06.025Z,97930.16
2023-05-01T00:04:34.049Z,97930.34
2023-05-01T00:07:01.142Z,97934.78
2023-05-01T00:09:28.625Z,97912.44
2023-05-01T00:11:55.279Z,97906.75
2023-05-01T00:14:22.056Z,97912.44
2023-05-01T00:16:48.831Z,97916.78
2023-05-01T00:19:19.116Z,97907.06
2023-05-01T00:21:48.972Z,97893.91
2023-05-01T00:24:17.355Z,97884.34
2023-05-01T00:26:45.235Z,97885.09
2023-05-01T00:29:11.967Z,97875.59
2023-05-01T00:31:38.619Z,97865.91
2023-05-01T00:34:05.438Z,97872.31
2023-05-01T00:36:32.844Z,97861.25
2023-05-01T00:38:59.549Z,97862.03
2023-05-01T00:41:26.414Z,97854.03
2023-05-01T00:43:53.538Z,97835.09
2023-05-01T00:46:20.616Z,97837.03
2023-05-01T00:48:47.388Z,97834.03
2023-05-01T00:51:15.399Z,97829.34
2023-05-01T00:53:43.256Z,97831.75
2023-05-01T00:56:11.329Z,97823.16
2023-05-01T00:58:38.725Z,97808.03
2023-05-01T01:01:05.537Z,97806.59
2023-05-01T01:03:32.253Z,97788.06
2023-05-01T01:06:08.539Z,97785.47
2023-05-01T01:08:42.211Z,97779.88
2023-05-01T01:11:21.729Z,97759.28
2023-05-01T01:14:10.990Z,97763.44
2023-05-01T01:16:45.668Z,97770.16
2023-05-01T01:19:30.851Z,97756.31
2023-05-01T01:22:05.780Z,97767.38
2023-05-01T01:24:43.335Z,97763.34
2023-05-01T01:27:47.717Z,97743.53
2023-05-01T01:30:34.890Z,97741.66
2023-05-01T01:33:24.067Z,97735.56
2023-05-01T01:36:07.602Z,97728.69
2023-05-01T01:38:42.627Z,97733.59
2023-05-01T01:41:37.019Z,97731.13
2023-05-01T01:44:17.768Z,97711.97
2023-05-01T01:46:45.542Z,97710.44
2023-05-01T01:49:20.831Z,97696.72
2023-05-01T01:51:50.136Z,97704.72
2023-05-01T01:54:22.353Z,97704.88
2023-05-01T01:56:50.706Z,97699.41
2023-05-01T01:59:18.951Z,97706.31
2023-05-01T02:01:47.901Z,97701.59
2023-05-01T02:04:16.367Z,97691.41
2023-05-01T02:06:44.781Z,97698.50
2023-05-01T02:09:12.701Z,97690.44
2023-05-01T02:11:41.650Z,97691.97
2023-05-01T02:14:09.940Z,97700.34
2023-05-01T02:16:37.767Z,97690.00
2023-05-01T02:19:05.237Z,97694.00
2023-05-01T02:21:34.876Z,97706.13
2023-05-01T02:24:02.467Z,97691.31
2023-05-01T02:26:29.890Z,97672.47
2023-05-01T02:28:57.004Z,97687.66
2023-05-01T02:31:23.758Z,97671.13
2023-05-01T02:33:50.470Z,97664.09
2023-05-01T02:36:17.453Z,97681.31
2023-05-01T02:38:47.366Z,97674.41
2023-05-01T02:41:15.926Z,97662.94
2023-05-01T02:43:44.559Z,97642.41
2023-05-01T02:46:13.801Z,97638.16
2023-05-01T02:48:42.291Z,97642.09
2023-05-01T02:51:09.587Z,97635.47
2023-05-01T02:53:36.817Z,97652.25
2023-05-01T02:56:14.121Z,97636.69
2023-05-01T02:58:41.398Z,97636.53
2023-05-01T03:01:08.189Z,97645.59
2023-05-01T03:03:35.516Z,97631.13
2023-05-01T03:06:02.399Z,97633.09
2023-05-01T03:08:30.323Z,97637.53
2023-05-01T03:10:57.020Z,97629.09
2023-05-01T03:13:23.677Z,97628.97
2023-05-01T03:15:50.389Z,97626.22
2023-05-01T03:18:17.089Z,97618.13
2023-05-01T03:20:54.273Z,97616.00
2023-05-01T03:23:21.538Z,97624.09
2023-05-01T03:25:48.242Z,97624.09
2023-05-01T03:28:14.955Z,97599.28
2023-05-01T03:30:42.036Z,97609.25
2023-05-01T03:33:08.835Z,97608.81
2023-05-01T03:35:36.355Z,97585.53
2023-05-01T03:38:04.762Z,97608.97
2023-05-01T03:41:01.014Z,97595.34
2023-05-01T03:43:45.754Z,97592.06
2023-05-01T03:46:38.739Z,97591.78
2023-05-01T03:49:07.715Z,97589.47
2023-05-01T03:51:40.884Z,97570.66
2023-05-01T03:54:08.163Z,97593.03
2023-05-01T03:56:50.233Z,97591.78
2023-05-01T03:59:18.266Z,97605.72
2023-05-01T04:01:45.181Z,97624.81
2023-05-01T04:04:12.073Z,97602.94
2023-05-01T04:06:42.207Z,97596.78
2023-05-01T04:09:09.139Z,97603.53
2023-05-01T04:11:35.777Z,97595.44
2023-05-01T04:14:02.501Z,97611.22
2023-05-01T04:16:30.960Z,97596.19
2023-05-01T04:18:57.664Z,97593.94
2023-05-01T04:21:24.422Z,97589.81
2023-05-01T04:23:52.472Z,97592.56
2023-05-01T04:26:19.550Z,97603.53
2023-05-01T04:28:46.568Z,97593.44
2023-05-01T04:31:16.165Z,97597.09
2023-05-01T04:33:43.052Z,97594.50
2023-05-01T04:36:09.775Z,97592.41
2023-05-01T04:38:37.501Z,97607.38
2023-05-01T04:41:06.188Z,97603.97
2023-05-01T04:43:33.346Z,97612.25
2023-05-01T04:46:00.771Z,97609.66
2023-05-01T04:48:27.484Z,97608.31
2023-05-01T04:50:55.490Z,97613.50
2023-05-01T04:53:24.222Z,97612.16
2023-05-01T04:55:50.918Z,97643.50
2023-05-01T04:58:18.456Z,97652.03
2023-05-01T05:00:48.356Z,97638.03
2023-05-01T05:03:21.007Z,97641.09
2023-05-01T05:05:47.818Z,97631.56
2023-05-01T05:08:14.974Z,97616.00
2023-05-01T05:10:46.921Z,97618.50
2023-05-01T05:13:23.979Z,97613.16
2023-05-01T05:16:11.226Z,97594.06
2023-05-01T05:18:39.094Z,97612.41
2023-05-01T05:21:06.966Z,97624.03
2023-05-01T05:23:33.939Z,97632.00
2023-05-01T05:26:01.905Z,97621.31
2023-05-01T05:28:29.264Z,97619.22
2023-05-01T05:30:57.119Z,97640.34
2023-05-01T05:33:25.431Z,97640.94
2023-05-01T05:35:52.892Z,97645.06
2023-05-01T05:38:23.523Z,97659.00
2023-05-01T05:40:54.622Z,97639.25
2023-05-01T05:43:22.373Z,97674.78
2023-05-01T05:45:49.342Z,97639.53
2023-05-01T05:48:16.234Z,97637.41
2023-05-01T05:50:43.086Z,97651.78
2023-05-01T05:53:11.901Z,97649.84
2023-05-01T05:55:39.082Z,97664.72
2023-05-01T05:58:07.088Z,97655.34
2023-05-01T06:00:34.814Z,97667.91
2023-05-01T06:03:04.889Z,97637.88
2023-05-01T06:05:32.743Z,97679.56
2023-05-01T06:07:59.494Z,97659.44
2023-05-01T06:10:26.703Z,97694.53
2023-05-01T06:12:55.543Z,97703.91
2023-05-01T06:15:31.177Z,97686.94
2023-05-01T06:17:58.016Z,97693.88
2023-05-01T06:20:24.775Z,97692.19
2023-05-01T06:22:51.879Z,97718.31
2023-05-01T06:25:24.376Z,97710.94
2023-05-01T06:27:51.610Z,97721.16
2023-05-01T06:30:21.370Z,97694.94
2023-05-01T06:32:48.409Z,97720.38
2023-05-01T06:35:16.283Z,97711.91
2023-05-01T06:37:43.042Z,97706.47
2023-05-01T06:40:11.719Z,97738.06
2023-05-01T06:42:39.914Z,97734.69
2023-05-01T06:45:07.803Z,97738.34
2023-05-01T06:47:34.879Z,97720.19
2023-05-01T06:50:06.132Z,97714.28
2023-05-01T06:52:33.807Z,97752.28
2023-05-01T06:55:00.614Z,97738.38
2023-05-01T06:57:27.502Z,97724.88
2023-05-01T06:59:54.513Z,97738.03
2023-05-01T07:02:21.437Z,97728.34
2023-05-01T07:04:48.247Z,97717.34
2023-05-01T07:07:14.869Z,97756.16
2023-05-01T07:09:41.642Z,97750.50
2023-05-01T07:12:08.829Z,97751.69
2023-05-01T07:14:36.061Z,97770.72
2023-05-01T07:17:03.945Z,97738.53
2023-05-01T07:19:30.756Z,97748.81
2023-05-01T07:21:57.472Z,97753.25
2023-05-01T07:24:24.165Z,97752.94
2023-05-01T07:26:51.586Z,97758.00
2023-05-01T07:29:18.666Z,97767.34
2023-05-01T07:31:46.350Z,97778.88
2023-05-01T07:34:13.075Z,97818.44
2023-05-01T07:36:39.982Z,97820.28
2023-05-01T07:39:06.825Z,97818.44
2023-05-01T07:41:33.689Z,97840.84
2023-05-01T07:44:01.012Z,97837.16
2023-05-01T07:46:27.990Z,97846.06
2023-05-01T07:48:54.762Z,97849.75
2023-05-01T07:51:21.901Z,97860.94
2023-05-01T07:53:48.892Z,97830.28
2023-05-01T07:56:16.371Z,97880.28
2023-05-01T07:58:44.114Z,97839.06
2023-05-01T08:01:11.364Z,97862.84
2023-05-01T08:03:38.184Z,97854.22
2023-05-01T08:06:06.193Z,97825.53
2023-05-01T08:08:33.205Z,97885.78
2023-05-01T08:10:59.866Z,97878.19
2023-05-01T08:13:26.577Z,97882.09
2023-05-01T08:15:53.575Z,97876.81
2023-05-01T08:18:21.349Z,97862.06
2023-05-01T08:20:48.885Z,97912.31
2023-05-01T08:23:17.547Z,97904.84
2023-05-01T08:25:50.972Z,97896.97
2023-05-01T08:28:18.668Z,97878.25
2023-05-01T08:30:46.027Z,97875.84
2023-05-01T08:33:12.726Z,97881.56
2023-05-01T08:35:39.446Z,97908.41
2023-05-01T08:38:06.539Z,97901.94
2023-05-01T08:40:38.931Z,97881.47
2023-05-01T08:43:05.661Z,97901.28
2023-05-01T08:45:36.333Z,97909.16
2023-05-01T08:48:07.170Z,97896.06
2023-05-01T08:50:39.468Z,97906.19
2023-05-01T08:53:07.279Z,97912.47
2023-05-01T08:55:35.345Z,97907.09
2023-05-01T08:58:04.228Z,97877.88
2023-05-01T09:00:32.065Z,97893.28
2023-05-01T09:03:01.353Z,97904.94
2023-05-01T09:05:28.189Z,97903.38
2023-05-01T09:07:55.341Z,97871.00
2023-05-01T09:10:22.008Z,97878.53
2023-05-01T09:12:52.854Z,97881.59
2023-05-01T09:15:19.580Z,97895.09
2023-05-01T09:17:46.555Z,97901.56
2023-05-01T09:20:14.199Z,97889.28
2023-05-01T09:22:41.108Z,97880.19
2023-05-01T09:25:08.203Z,97887.38
2023-05-01T09:27:35.965Z,97892.97
2023-05-01T09:30:03.616Z,97893.59
2023-05-01T09:32:30.373Z,97893.25
2023-05-01T09:35:13.642Z,97889.53
2023-05-01T09:37:40.840Z,97894.19
2023-05-01T09:40:11.809Z,97891.78
2023-05-01T09:42:41.423Z,97875.53
2023-05-01T09:45:15.034Z,97882.75
2023-05-01T09:47:44.049Z,97888.38
2023-05-01T09:50:12.808Z,97892.81
2023-05-01T09:52:39.491Z,97900.06
2023-05-01T09:55:16.635Z,97893.63
2023-05-01T09:57:44.579Z,97901.19
2023-05-01T10:00:15.774Z,97890.03
2023-05-01T10:02:46.799Z,97896.53
2023-05-01T10:05:14.453Z,97886.16
2023-05-01T10:07:57.617Z,97881.00
2023-05-01T10:10:24.430Z,97884.38
2023-05-01T10:12:51.640Z,97876.88
2023-05-01T10:15:26.269Z,97882.91
2023-05-01T10:17:54.593Z,97890.97
2023-05-01T10:20:22.002Z,97886.84
2023-05-01T10:22:49.560Z,97885.66
2023-05-01T10:25:18.201Z,97869.00
2023-05-01T10:27:44.993Z,97883.09
2023-05-01T10:30:11.908Z,97876.25
2023-05-01T10:32:39.510Z,97882.63
2023-05-01T10:35:11.851Z,97878.53
2023-05-01T10:37:47.310Z,97856.56
2023-05-01T10:40:47.242Z,97855.25
2023-05-01T10:43:16.212Z,97871.28
2023-05-01T10:45:44.213Z,97875.31
2023-05-01T10:48:11.032Z,97863.75
2023-05-01T10:51:11.099Z,97868.09
2023-05-01T10:53:38.975Z,97853.53
2023-05-01T10:56:06.494Z,97857.97
2023-05-01T10:58:44.095Z,97853.19
2023-05-01T11:01:41.077Z,97854.81
2023-05-01T11:04:28.229Z,97857.59
2023-05-01T11:06:57.825Z,97853.66
2023-05-01T11:09:59.861Z,97846.84
2023-05-01T11:12:45.748Z,97849.03
2023-05-01T11:15:13.815Z,97845.00
2023-05-01T11:17:43.663Z,97838.84
2023-05-01T11:20:12.106Z,97842.84
2023-05-01T11:22:40.927Z,97841.47
2023-05-01T11:25:20.855Z,97835.25
2023-05-01T11:27:53.140Z,97838.19
2023-05-01T11:30:20.207Z,97849.56
2023-05-01T11:32:49.157Z,97833.44
2023-05-01T11:35:28.360Z,97833.63
2023-05-01T11:37:57.772Z,97838.50
2023-05-01T11:40:31.998Z,97835.31
2023-05-01T11:43:07.275Z,97839.22
2023-05-01T11:45:36.089Z,97837.13
2023-05-01T11:48:04.947Z,97838.53
2023-05-01T11:50:36.588Z,97816.34
2023-05-01T11:53:04.932Z,97831.06
2023-05-01T11:55:33.128Z,97832.34
2023-05-01T11:58:00.147Z,97826.09
2023-05-01T12:00:37.010Z,97816.94
2023-05-01T12:03:06.716Z,97827.75
2023-05-01T12:05:37.414Z,97826.19
2023-05-01T12:08:18.887Z,97831.22
2023-05-01T12:10:48.378Z,97826.66
2023-05-01T12:13:16.514Z,97837.94
2023-05-01T12:15:45.741Z,97829.38
2023-05-01T12:18:14.428Z,97828.41
2023-05-01T12:20:42.373Z,97834.88
2023-05-01T12:23:11.611Z,97843.06
2023-05-01T12:25:40.180Z,97834.56
2023-05-01T12:28:19.853Z,97837.88
2023-05-01T12:30:49.930Z,97836.41
2023-05-01T12:33:21.312Z,97836.88
2023-05-01T12:35:51.811Z,97838.94
2023-05-01T12:38:20.894Z,97844.09
2023-05-01T12:40:56.071Z,97837.34
2023-05-01T12:43:30.894Z,97843.34
2023-05-01T12:45:58.372Z,97837.50
2023-05-01T12:48:25.388Z,97839.47
2023-05-01T12:50:55.674Z,97835.72
2023-05-01T12:53:23.984Z,97831.31
2023-05-01T12:55:53.282Z,97818.53
2023-05-01T12:58:20.108Z,97826.44
2023-05-01T13:00:52.441Z,97818.69
2023-05-01T13:03:24.836Z,97810.28
2023-05-01T13:06:00.844Z,97773.94
2023-05-01T13:08:32.806Z,97804.88
2023-05-01T13:11:02.994Z,97819.63
2023-05-01T13:13:32.057Z,97818.97
2023-05-01T13:16:16.159Z,97824.34
2023-05-01T13:18:44.356Z,97817.56
2023-05-01T13:21:13.149Z,97817.19
2023-05-01T13:23:40.392Z,97811.00
2023-05-01T13:26:08.289Z,97809.31
2023-05-01T13:28:45.260Z,97812.63
2023-05-01T13:31:16.179Z,97819.75
2023-05-01T13:33:43.968Z,97807.28
2023-05-01T13:36:25.235Z,97810.56
2023-05-01T13:38:56.243Z,97796.28
2023-05-01T13:41:26.024Z,97792.44
2023-05-01T13:43:54.532Z,97795.34
2023-05-01T13:46:23.187Z,97804.84
2023-05-01T13:48:50.551Z,97802.13
2023-05-01T13:51:23.132Z,97800.78
2023-05-01T13:53:50.446Z,97805.34
2023-05-01T13:56:17.515Z,97805.38
2023-05-01T13:58:44.332Z,97810.13
2023-05-01T14:01:19.409Z,97802.06
2023-05-01T14:03:46.718Z,97797.97
2023-05-01T14:06:16.017Z,97796.84
2023-05-01T14:08:43.559Z,97796.16
2023-05-01T14:11:11.858Z,97780.00
2023-05-01T14:13:43.059Z,97794.84
2023-05-01T14:16:31.867Z,97800.03
2023-05-01T14:18:59.217Z,97787.56
2023-05-01T14:21:30.160Z,97797.03
2023-05-01T14:23:57.306Z,97792.28
2023-05-01T14:26:25.051Z,97796.38
2023-05-01T14:28:52.097Z,97798.13
2023-05-01T14:31:27.569Z,97792.97
2023-05-01T14:33:59.557Z,97791.94
2023-05-01T14:36:28.603Z,97781.66
2023-05-01T14:39:04.116Z,97786.13
2023-05-01T14:41:31.924Z,97789.09
2023-05-01T14:43:58.619Z,97784.13
2023-05-01T14:46:34.074Z,97785.50
2023-05-01T14:49:02.170Z,97775.63
2023-05-01T14:51:31.775Z,97780.13
2023-05-01T14:53:59.007Z,97774.00
2023-05-01T14:56:25.830Z,97759.84
2023-05-01T14:58:52.629Z,97742.06
2023-05-01T15:01:20.065Z,97745.44
2023-05-01T15:03:47.065Z,97752.59
2023-05-01T15:06:13.991Z,97750.72
2023-05-01T15:08:40.706Z,97746.25
2023-05-01T15:11:08.002Z,97764.72
2023-05-01T15:13:34.763Z,97745.06
2023-05-01T15:16:01.509Z,97770.38
2023-05-01T15:18:28.245Z,97757.66
2023-05-01T15:20:55.712Z,97736.56
2023-05-01T15:23:23.147Z,97739.88
2023-05-01T15:25:51.004Z,97765.94
2023-05-01T15:28:18.490Z,97734.59
2023-05-01T15:30:46.867Z,97756.69
2023-05-01T15:33:16.269Z,97777.84
2023-05-01T15:35:46.416Z,97783.06
2023-05-01T15:38:13.237Z,97752.59
2023-05-01T15:40:40.052Z,97739.09
2023-05-01T15:43:06.890Z,97707.28
2023-05-01T15:45:33.865Z,97724.00
2023-05-01T15:48:01.370Z,97761.13
2023-05-01T15:50:28.452Z,97743.75
2023-05-01T15:52:55.191Z,97725.34
2023-05-01T15:55:22.212Z,97731.91
2023-05-01T15:57:49.052Z,97761.91
2023-05-01T16:00:17.231Z,97743.25
2023-05-01T16:02:44.829Z,97732.72
2023-05-01T16:05:13.773Z,97761.94
2023-05-01T16:07:40.709Z,97754.81
2023-05-01T16:10:08.710Z,97743.41
2023-05-01T16:12:35.445Z,97757.44
2023-05-01T16:15:04.131Z,97765.16
2023-05-01T16:17:43.781Z,97768.38
2023-05-01T16:20:14.768Z,97783.53
2023-05-01T16:22:43.368Z,97812.19
2023-05-01T16:25:11.256Z,97822.34
2023-05-01T16:27:45.949Z,97822.34
2023-05-01T16:30:16.424Z,97804.69
2023-05-01T16:32:44.936Z,97799.06
2023-05-01T16:35:17.170Z,97775.63
2023-05-01T16:37:44.057Z,97766.38
2023-05-01T16:40:16.506Z,97780.78
2023-05-01T16:42:44.198Z,97797.44
2023-05-01T16:45:10.972Z,97803.00
2023-05-01T16:47:39.045Z,97787.47
2023-05-01T16:50:08.773Z,97802.84
2023-05-01T16:52:35.772Z,97792.72
2023-05-01T16:55:02.527Z,97792.47
2023-05-01T16:57:29.219Z,97817.38
2023-05-01T16:59:56.181Z,97806.97
2023-05-01T17:02:23.002Z,97824.78
2023-05-01T17:04:49.854Z,97826.56
2023-05-01T17:07:16.544Z,97836.38
2023-05-01T17:09:43.349Z,97837.94
2023-05-01T17:12:10.182Z,97830.22
2023-05-01T17:14:36.995Z,97837.19
2023-05-01T17:19:31.736Z,97798.47
2023-05-01T17:21:58.583Z,97797.13
2023-05-01T17:24:27.276Z,97781.66
2023-05-01T17:26:53.969Z,97775.16
2023-05-01T17:29:20.693Z,97769.03
2023-05-01T17:31:47.419Z,97760.41
2023-05-01T17:34:14.102Z,97763.91
2023-05-01T17:36:41.022Z,97779.09
2023-05-01T17:39:07.661Z,97769.28
2023-05-01T17:41:34.330Z,97761.75
2023-05-01T17:44:01.144Z,97748.63
2023-05-01T17:46:27.955Z,97759.22
2023-05-01T17:48:54.892Z,97745.16
2023-05-01T17:51:21.583Z,97738.63
2023-05-01T17:53:48.500Z,97741.09
2023-05-01T17:56:15.419Z,97742.00
2023-05-01T17:58:42.313Z,97727.88
2023-05-01T18:01:09.077Z,97733.47
2023-05-01T18:03:36.014Z,97732.56
2023-05-01T18:06:02.897Z,97735.19
2023-05-01T18:08:29.828Z,97734.09
2023-05-01T18:10:56.793Z,97725.56
2023-05-01T18:13:28.251Z,97724.78
2023-05-01T18:15:55.971Z,97719.00
2023-05-01T18:18:23.127Z,97732.84
2023-05-01T18:20:49.803Z,97733.28
2023-05-01T18:23:18.978Z,97734.69
2023-05-01T18:25:46.442Z,97729.41
2023-05-01T18:28:13.510Z,97741.97
2023-05-01T18:30:40.208Z,97761.72
2023-05-01T18:33:06.981Z,97758.63
2023-05-01T18:35:33.813Z,97757.19
2023-05-01T18:38:00.513Z,97752.13
2023-05-01T18:40:27.524Z,97752.13
2023-05-01T18:42:54.368Z,97759.22
2023-05-01T18:45:22.223Z,97754.19
2023-05-01T18:47:49.098Z,97746.66
2023-05-01T18:50:21.633Z,97735.88
2023-05-01T18:52:48.966Z,97738.75
2023-05-01T18:55:15.962Z,97731.50
2023-05-01T18:57:43.860Z,97733.66
2023-05-01T19:00:15.468Z,97729.25
2023-05-01T19:02:42.194Z,97723.75
2023-05-01T19:05:09.756Z,97717.84
2023-05-01T19:07:36.835Z,97727.22
2023-05-01T19:10:03.921Z,97714.13
2023-05-01T19:12:30.566Z,97708.06
2023-05-01T19:14:57.301Z,97705.94
2023-05-01T19:17:24.305Z,97706.72
2023-05-01T19:19:51.045Z,97690.31
2023-05-01T19:22:17.843Z,97709.06
2023-05-01T19:24:44.680Z,97710.78
2023-05-01T19:27:11.793Z,97691.19
2023-05-01T19:29:39.988Z,97684.47
2023-05-01T19:32:07.496Z,97691.19
2023-05-01T19:34:34.268Z,97693.53
2023-05-01T19:37:02.219Z,97686.69
2023-05-01T19:39:29.596Z,97698.94
2023-05-01T19:41:56.722Z,97696.66
2023-05-01T19:44:23.454Z,97701.56
2023-05-01T19:46:50.171Z,97685.81
2023-05-01T19:49:16.901Z,97692.28
2023-05-01T19:51:45.369Z,97691.19
2023-05-01T19:54:12.521Z,97694.28
2023-05-01T19:56:39.539Z,97694.31
2023-05-01T19:59:06.256Z,97696.28
2023-05-01T20:01:33.739Z,97690.91
2023-05-01T20:04:00.581Z,97704.25
2023-05-01T20:06:28.061Z,97693.53
2023-05-01T20:08:54.837Z,97694.16
2023-05-01T20:11:21.548Z,97686.19
2023-05-01T20:13:48.202Z,97690.81
2023-05-01T20:16:14.980Z,97692.31
2023-05-01T20:18:41.850Z,97689.41
2023-05-01T20:21:08.534Z,97696.94
2023-05-01T20:23:35.300Z,97700.19
2023-05-01T20:26:02.203Z,97696.47
2023-05-01T20:28:29.417Z,97691.88
2023-05-01T20:30:56.871Z,97704.63
2023-05-01T20:33:23.850Z,97698.66
2023-05-01T20:35:51.517Z,97683.91
2023-05-01T20:38:18.269Z,97671.97
2023-05-01T20:40:45.146Z,97675.03
2023-05-01T20:43:12.038Z,97666.47
2023-05-01T20:45:39.651Z,97660.97
2023-05-01T20:48:06.561Z,97644.84
2023-05-01T20:50:33.511Z,97652.06
2023-05-01T20:53:00.251Z,97655.09
2023-05-01T20:55:28.211Z,97656.50
2023-05-01T20:57:55.156Z,97652.81
2023-05-01T21:00:21.855Z,97643.00
2023-05-01T21:02:48.654Z,97636.91
2023-05-01T21:05:16.471Z,97636.13
2023-05-01T21:07:43.178Z,97635.50
2023-05-01T21:10:11.200Z,97641.75
2023-05-01T21:12:38.063Z,97637.34
2023-05-01T21:15:05.198Z,97643.31
2023-05-01T21:17:36.084Z,97643.97
2023-05-01T21:20:08.601Z,97634.72
2023-05-01T21:22:35.332Z,97635.66
2023-05-01T21:25:02.032Z,97641.16
2023-05-01T21:27:28.707Z,97625.88
2023-05-01T21:30:00.825Z,97621.25
2023-05-01T21:32:30.752Z,97622.16
2023-05-01T21:34:58.238Z,97608.69
2023-05-01T21:37:25.042Z,97601.47
2023-05-01T21:39:51.916Z,97607.47
2023-05-01T21:42:18.741Z,97614.06
2023-05-01T21:44:45.431Z,97620.19
2023-05-01T21:47:13.099Z,97626.31
2023-05-01T21:49:40.193Z,97627.25
2023-05-01T21:52:08.937Z,97617.88
2023-05-01T21:54:36.956Z,97615.09
2023-05-01T21:57:05.705Z,97621.41
2023-05-01T21:59:36.261Z,97620.03
2023-05-01T22:02:07.520Z,97612.06
2023-05-01T22:04:35.242Z,97602.41
2023-05-01T22:07:02.151Z,97606.97
2023-05-01T22:09:29.212Z,97595.66
2023-05-01T22:11:55.956Z,97601.00
2023-05-01T22:14:22.744Z,97599.03
2023-05-01T22:16:49.422Z,97594.28
2023-05-01T22:19:16.700Z,97581.41
2023-05-01T22:21:47.510Z,97566.84
2023-05-01T22:24:14.176Z,97551.53
2023-05-01T22:26:40.882Z,97542.97
2023-05-01T22:29:08.607Z,97545.38
2023-05-01T22:31:35.889Z,97548.47
2023-05-01T22:34:02.673Z,97549.84
2023-05-01T22:36:30.531Z,97525.75
2023-05-01T22:38:57.216Z,97501.84
2023-05-01T22:41:24.316Z,97494.84
2023-05-01T22:43:51.936Z,97491.78
2023-05-01T22:46:18.728Z,97483.50
2023-05-01T22:48:45.597Z,97480.13
2023-05-01T22:51:12.267Z,97453.66
2023-05-01T22:53:38.967Z,97441.84
2023-05-01T22:56:06.269Z,97425.59
2023-05-01T22:58:32.905Z,97426.34
2023-05-01T23:00:59.542Z,97414.47
2023-05-01T23:03:26.516Z,97409.59
2023-05-01T23:05:53.601Z,97398.88
2023-05-01T23:08:20.241Z,97400.56
2023-05-01T23:10:47.026Z,97397.19
2023-05-01T23:13:19.141Z,97408.19
2023-05-01T23:15:47.431Z,97407.13
2023-05-01T23:18:17.281Z,97400.25
2023-05-01T23:20:44.043Z,97389.38
2023-05-01T23:23:14.105Z,97390.47
2023-05-01T23:25:46.862Z,97381.47
2023-05-01T23:28:19.951Z,97392.19
2023-05-01T23:30:58.900Z,97383.31
2023-05-01T23:33:27.685Z,97379.31
2023-05-01T23:35:54.383Z,97372.91
2023-05-01T23:38:21.165Z,97376.09
2023-05-01T23:40:47.972Z,97388.50
2023-05-01T23:43:15.204Z,97397.97
2023-05-01T23:45:42.181Z,97391.09
2023-05-01T23:48:09.474Z,97386.97
2023-05-01T23:50:36.585Z,97401.63
2023-05-01T23:53:08.027Z,97400.75
2023-05-01T23:55:35.601Z,97403.75
2023-05-01T23:58:02.744Z,97384.47
